Time;durP1;ratioP1;P1;durP2;ratioP2;P2;SDS_P1;SDS_P2;PMS_P1;PMS_P2;Temp;Humidity;BMP_temperature;BMP_pressure;BME280_temperature;BME280_humidity;BME280_pressure;Samples;Min_cycle;Max_cycle;Signal;HPM_P1;HPM_P2
2022/12/15 00:38:43;;;;;;;18.23;10.55;;;-2.30;99.90;;;;;;5090118;28;20413;-75
2022/12/15 00:41:14;;;;;;;18.33;9.70;;;-2.40;99.90;;;;;;5090145;28;20480;-75
2022/12/15 00:43:39;;;;;;;19.80;10.02;;;-2.30;99.90;;;;;;5088852;28;20417;-75
2022/12/15 00:48:50;;;;;;;18.17;9.57;;;-2.20;99.90;;;;;;5085182;28;20490;-75
2022/12/15 00:51:16;;;;;;;17.38;9.75;;;-2.10;99.90;;;;;;5082347;28;20527;-75
2022/12/15 01:21:09;;;;;;;20.67;12.07;;;-2.30;99.90;;;;;;5088131;28;20414;-75
2022/12/15 01:23:36;;;;;;;18.75;11.50;;;-2.40;99.90;;;;;;5090038;28;20410;-75
2022/12/15 01:26:02;;;;;;;20.27;11.77;;;-2.40;99.90;;;;;;5089209;28;20393;-75
2022/12/15 01:28:28;;;;;;;19.33;11.30;;;-2.40;99.90;;;;;;5089602;28;20406;-75
2022/12/15 01:30:54;;;;;;;22.60;12.38;;;-2.30;99.90;;;;;;5084883;28;20521;-75
2022/12/15 01:33:21;;;;;;;21.43;11.57;;;-2.30;99.90;;;;;;5080169;28;20576;-75
2022/12/15 01:35:57;;;;;;;20.73;11.43;;;-2.30;99.90;;;;;;5088884;28;20962;-75
2022/12/15 01:38:23;;;;;;;18.47;10.40;;;-2.30;99.90;;;;;;5089439;28;20493;-75
2022/12/15 01:40:59;;;;;;;20.30;11.17;;;-2.30;99.90;;;;;;5088983;28;21018;-75
2022/12/15 01:43:29;;;;;;;20.08;10.98;;;-2.30;99.90;;;;;;5100128;28;20396;-75
2022/12/15 01:45:55;;;;;;;19.42;10.68;;;-2.30;99.90;;;;;;5078507;28;20402;-75
2022/12/15 01:48:34;;;;;;;18.93;10.33;;;-2.30;99.90;;;;;;5089176;28;20417;-75
2022/12/15 01:51:29;;;;;;;18.52;10.63;;;-2.30;99.90;;;;;;5089165;28;20548;-75
2022/12/15 01:54:13;;;;;;;18.40;10.90;;;-2.30;99.90;;;;;;5074390;28;20457;-75
2022/12/15 01:56:43;;;;;;;18.95;10.75;;;-2.20;99.90;;;;;;5077986;28;20398;-76
2022/12/15 01:59:14;;;;;;;17.08;10.05;;;-2.30;99.90;;;;;;5088897;28;20417;-75
2022/12/15 02:01:39;;;;;;;17.80;10.10;;;-2.30;99.90;;;;;;5088818;28;20398;-75
2022/12/15 02:04:05;;;;;;;16.50;9.73;;;-2.30;99.90;;;;;;5088788;28;20428;-75
2022/12/15 02:06:31;;;;;;;17.83;10.17;;;-2.30;99.90;;;;;;5088653;28;20409;-75
2022/12/15 02:08:59;;;;;;;15.53;9.53;;;-2.20;99.90;;;;;;5088853;28;20421;-75
2022/12/15 02:11:41;;;;;;;17.65;9.65;;;-2.20;99.90;;;;;;5081188;28;20928;-76
2022/12/15 02:14:09;;;;;;;17.30;9.98;;;-2.20;99.90;;;;;;5092572;28;20508;-75
2022/12/15 02:16:50;;;;;;;16.33;9.57;;;-2.20;99.90;;;;;;5088595;28;20480;-75
2022/12/15 02:19:44;;;;;;;20.30;9.95;;;-2.20;99.90;;;;;;5074441;28;20410;-75
2022/12/15 02:22:30;;;;;;;16.45;9.98;;;-2.20;99.90;;;;;;5088445;28;20420;-75
2022/12/15 02:25:23;;;;;;;16.00;9.57;;;-2.30;99.90;;;;;;5088327;28;20414;-75
2022/12/15 02:28:05;;;;;;;16.23;9.35;;;-2.30;99.90;;;;;;5088091;28;20418;-75
2022/12/15 02:31:48;;;;;;;15.93;9.48;;;-2.30;99.90;;;;;;5085396;28;21132;-76
2022/12/15 02:33:35;;;;;;;15.80;8.95;;;-2.30;99.90;;;;;;5082101;28;20434;-75
2022/12/15 02:36:17;;;;;;;15.90;9.35;;;-2.40;99.90;;;;;;5071100;28;20414;-75
2022/12/15 02:38:43;;;;;;;19.48;9.27;;;-2.40;99.90;;;;;;5082802;28;20422;-75
2022/12/15 02:41:38;;;;;;;16.30;9.20;;;-2.40;99.90;;;;;;5088269;28;20406;-75
2022/12/15 02:44:16;;;;;;;15.10;9.18;;;-2.40;99.90;;;;;;5092049;28;20415;-75
2022/12/15 02:46:54;;;;;;;14.37;8.27;;;-2.40;99.90;;;;;;5089910;28;20892;-75
2022/12/15 02:49:32;;;;;;;16.33;8.17;;;-2.40;99.90;;;;;;5088181;28;20418;-75
2022/12/15 02:52:12;;;;;;;14.00;7.82;;;-2.30;99.90;;;;;;5087658;28;20501;-75
2022/12/15 02:54:57;;;;;;;15.00;7.85;;;-2.30;99.90;;;;;;5086789;28;20398;-75
2022/12/15 02:57:37;;;;;;;14.25;6.90;;;-2.30;99.90;;;;;;5077837;28;20489;-75
2022/12/15 03:00:08;;;;;;;12.65;6.97;;;-2.20;99.90;;;;;;5086176;28;21098;-76
2022/12/15 03:02:38;;;;;;;12.85;6.65;;;-2.20;99.90;;;;;;5088043;28;20428;-75
2022/12/15 03:05:05;;;;;;;13.40;6.47;;;-2.20;99.90;;;;;;5075584;28;20410;-75
2022/12/15 03:07:30;;;;;;;10.77;5.63;;;-2.10;99.90;;;;;;5088063;28;20401;-75
2022/12/15 03:10:01;;;;;;;11.95;6.53;;;-2.10;99.90;;;;;;5071224;28;20411;-75
2022/12/15 03:12:27;;;;;;;9.93;5.47;;;-2.00;99.90;;;;;;5081601;28;20406;-75
2022/12/15 03:14:53;;;;;;;11.10;5.50;;;-1.90;99.90;;;;;;5077183;28;20441;-75
2022/12/15 03:17:18;;;;;;;10.43;5.17;;;-1.80;99.90;;;;;;5079447;28;20459;-75
2022/12/15 03:19:44;;;;;;;9.15;4.63;;;-1.70;99.90;;;;;;5070536;28;20489;-75
2022/12/15 03:22:10;;;;;;;8.95;3.78;;;-1.60;99.90;;;;;;5077447;28;20907;-75
2022/12/15 03:24:35;;;;;;;9.23;3.00;;;-1.40;99.90;;;;;;5087621;28;20409;-75
2022/12/15 03:27:01;;;;;;;10.10;3.35;;;-1.30;99.90;;;;;;5086423;28;20739;-75
2022/12/15 03:29:27;;;;;;;6.80;2.58;;;-1.20;99.90;;;;;;5083174;28;20483;-75
2022/12/15 03:31:53;;;;;;;7.80;2.43;;;-1.20;99.90;;;;;;5077162;28;20414;-75
2022/12/15 03:34:19;;;;;;;5.90;2.00;;;-1.20;99.90;;;;;;5087067;28;20430;-75
2022/12/15 03:36:44;;;;;;;6.73;1.57;;;-1.30;99.90;;;;;;5087327;28;20463;-75
2022/12/15 03:39:10;;;;;;;9.05;1.90;;;-1.30;99.90;;;;;;5087525;28;20404;-75
2022/12/15 03:41:35;;;;;;;7.57;1.43;;;-1.40;99.90;;;;;;5086266;28;20413;-75
2022/12/15 03:44:01;;;;;;;5.75;1.42;;;-1.40;99.90;;;;;;5074888;28;20438;-75
2022/12/15 03:46:27;;;;;;;5.23;1.40;;;-1.40;99.90;;;;;;5083464;28;20443;-75
2022/12/15 03:48:53;;;;;;;9.07;2.43;;;-1.50;99.90;;;;;;5082716;28;20407;-75
2022/12/15 03:51:19;;;;;;;9.32;2.88;;;-1.40;99.90;;;;;;5080118;28;20842;-75
2022/12/15 03:53:46;;;;;;;8.45;3.25;;;-1.40;99.90;;;;;;5082281;28;20478;-75
2022/12/15 03:56:12;;;;;;;9.98;3.65;;;-1.40;99.90;;;;;;5081168;28;20409;-75
2022/12/15 03:58:38;;;;;;;11.35;3.42;;;-1.50;99.90;;;;;;5070505;28;21252;-75
2022/12/15 04:01:28;;;;;;;14.07;3.60;;;-1.50;99.90;;;;;;5072579;28;20468;-75
2022/12/15 04:03:54;;;;;;;8.40;3.58;;;-1.60;99.90;;;;;;5077341;28;20471;-75
2022/12/15 04:06:20;;;;;;;7.45;3.50;;;-1.60;99.90;;;;;;5085528;28;20394;-75
2022/12/15 04:08:46;;;;;;;10.20;4.13;;;-1.70;99.90;;;;;;5086667;28;20405;-75
2022/12/15 04:11:11;;;;;;;11.83;4.37;;;-1.70;99.90;;;;;;5087334;28;20405;-75
2022/12/15 04:13:37;;;;;;;9.52;4.32;;;-1.70;99.90;;;;;;5083539;28;20528;-75
2022/12/15 04:16:02;;;;;;;9.00;4.40;;;-1.80;99.90;;;;;;5073305;28;20398;-75
2022/12/15 04:18:28;;;;;;;10.65;4.40;;;-1.80;99.90;;;;;;5077689;28;20396;-75
2022/12/15 04:20:54;;;;;;;9.80;4.45;;;-1.90;99.90;;;;;;5070810;28;21445;-75
2022/12/15 04:23:21;;;;;;;10.60;4.53;;;-1.90;99.90;;;;;;5077255;28;20415;-75
2022/12/15 05:31:57;;;;;;;15.13;8.88;;;-2.20;99.90;;;;;;5088610;28;20781;-75
2022/12/15 05:34:26;;;;;;;13.38;7.03;;;-2.10;99.90;;;;;;5089152;28;20426;-75
2022/12/15 05:36:54;;;;;;;14.27;7.50;;;-2.00;99.90;;;;;;5088508;28;20402;-75
2022/12/15 05:39:20;;;;;;;15.43;7.30;;;-2.00;99.90;;;;;;5088520;28;20449;-75
2022/12/15 05:41:46;;;;;;;13.90;8.15;;;-1.90;99.90;;;;;;5077648;28;20479;-75
2022/12/15 05:44:12;;;;;;;12.75;8.15;;;-1.90;99.90;;;;;;5086289;28;20485;-75
2022/12/15 05:46:37;;;;;;;15.30;8.50;;;-1.90;99.90;;;;;;5088245;28;20467;-75
2022/12/15 05:49:05;;;;;;;16.38;8.32;;;-1.90;99.90;;;;;;5084828;28;20410;-75
2022/12/15 05:51:31;;;;;;;14.70;8.20;;;-1.80;99.90;;;;;;5087542;28;20402;-75
2022/12/15 05:53:56;;;;;;;16.45;8.98;;;-1.90;99.90;;;;;;5086632;28;20441;-75
2022/12/15 05:56:22;;;;;;;15.23;8.40;;;-1.90;99.90;;;;;;5077483;28;20427;-75
2022/12/15 05:58:48;;;;;;;14.38;8.60;;;-1.80;99.90;;;;;;5070300;28;20810;-75
2022/12/15 06:01:16;;;;;;;15.10;8.40;;;-1.80;99.90;;;;;;5069571;28;20430;-75
2022/12/15 06:03:42;;;;;;;15.23;8.55;;;-1.90;99.90;;;;;;5067990;28;20408;-75
2022/12/15 06:06:09;;;;;;;15.95;9.10;;;-1.90;99.90;;;;;;5071853;28;20495;-75
2022/12/15 06:08:37;;;;;;;14.63;8.65;;;-1.90;99.90;;;;;;5087967;28;20485;-75
2022/12/15 06:11:03;;;;;;;14.83;8.63;;;-1.90;99.90;;;;;;5074359;28;20494;-75
2022/12/15 06:13:31;;;;;;;17.10;9.57;;;-1.80;99.90;;;;;;5083212;28;20440;-75
2022/12/15 06:16:00;;;;;;;17.58;9.20;;;-1.80;99.90;;;;;;5073538;28;20422;-75
2022/12/15 06:18:32;;;;;;;17.40;8.70;;;-1.70;99.90;;;;;;5076423;28;20411;-75
2022/12/15 06:21:06;;;;;;;15.40;9.07;;;-1.70;99.90;;;;;;5085304;28;20807;-75
2022/12/15 06:23:33;;;;;;;17.33;9.20;;;-1.60;99.90;;;;;;5074314;28;20454;-75
2022/12/15 06:26:06;;;;;;;17.27;9.13;;;-1.70;99.90;;;;;;5087135;28;20402;-75
2022/12/15 06:28:32;;;;;;;17.23;9.57;;;-1.60;99.90;;;;;;5084219;28;20407;-75
2022/12/15 06:31:01;;;;;;;16.10;8.67;;;-1.60;99.90;;;;;;5075154;28;20390;-75
2022/12/15 06:33:28;;;;;;;15.43;8.63;;;-1.60;99.90;;;;;;5088422;28;20414;-75
2022/12/15 06:35:54;;;;;;;15.13;8.67;;;-1.60;99.90;;;;;;5073262;28;20978;-75
2022/12/15 06:38:20;;;;;;;14.93;8.80;;;-1.60;99.90;;;;;;5086734;28;20497;-75
2022/12/15 06:40:53;;;;;;;14.40;8.40;;;-1.50;99.90;;;;;;5083810;28;20439;-75
2022/12/15 06:43:18;;;;;;;15.48;8.60;;;-1.50;99.90;;;;;;5076296;28;20844;-75
2022/12/15 06:45:48;;;;;;;15.85;8.85;;;-1.50;99.90;;;;;;5074137;28;20404;-75
2022/12/15 06:48:14;;;;;;;14.27;8.32;;;-1.50;99.90;;;;;;5088109;28;20406;-75
2022/12/15 06:50:40;;;;;;;15.07;8.48;;;-1.40;99.90;;;;;;5087429;28;20405;-75
2022/12/15 06:53:06;;;;;;;14.93;7.85;;;-1.40;99.90;;;;;;5083108;28;21007;-75
2022/12/15 06:55:31;;;;;;;15.65;7.38;;;-1.40;99.90;;;;;;5065037;28;20486;-74
2022/12/15 06:57:57;;;;;;;17.45;8.23;;;-1.30;99.90;;;;;;5083261;28;20415;-73
2022/12/15 07:00:23;;;;;;;14.17;7.23;;;-1.30;99.90;;;;;;5082832;28;20493;-75
2022/12/15 07:02:48;;;;;;;14.10;7.22;;;-1.20;99.90;;;;;;5083350;28;20431;-75
2022/12/15 07:05:14;;;;;;;12.43;7.10;;;-1.20;99.90;;;;;;5065220;28;20454;-76
2022/12/15 07:07:40;;;;;;;11.37;6.73;;;-1.20;99.90;;;;;;5081526;28;20687;-75
2022/12/15 07:10:06;;;;;;;13.55;6.80;;;-1.10;99.90;;;;;;5073287;28;20407;-75
2022/12/15 07:12:32;;;;;;;11.45;5.97;;;-1.10;99.90;;;;;;5080805;28;20554;-75
2022/12/15 07:14:57;;;;;;;12.73;6.55;;;-1.10;99.90;;;;;;5077208;28;20474;-75
2022/12/15 07:17:23;;;;;;;14.33;5.53;;;-1.10;99.90;;;;;;5068795;28;20955;-75
2022/12/15 07:19:49;;;;;;;10.27;5.87;;;-1.00;99.90;;;;;;5083802;28;20550;-75
2022/12/15 07:22:14;;;;;;;11.75;5.80;;;-0.90;99.90;;;;;;5081247;28;20740;-75
2022/12/15 07:24:40;;;;;;;14.17;5.70;;;-0.90;99.90;;;;;;5078013;28;20561;-75
2022/12/15 07:27:05;;;;;;;9.63;5.00;;;-0.80;99.90;;;;;;5066095;28;20456;-75
2022/12/15 07:29:31;;;;;;;13.57;6.05;;;-0.80;99.90;;;;;;5087522;28;20455;-75
2022/12/15 07:31:59;;;;;;;9.77;5.17;;;-0.80;99.90;;;;;;5081945;28;20469;-75
2022/12/15 07:34:25;;;;;;;11.23;5.35;;;-0.70;99.90;;;;;;5077528;28;20449;-75
2022/12/15 07:36:50;;;;;;;10.27;5.05;;;-0.70;99.90;;;;;;5083514;28;20435;-76
2022/12/15 07:39:16;;;;;;;9.98;4.72;;;-0.60;99.90;;;;;;5077533;28;20419;-75
2022/12/15 07:41:41;;;;;;;12.83;6.03;;;-0.50;99.90;;;;;;5080368;28;20430;-75
2022/12/15 07:44:07;;;;;;;12.73;5.80;;;-0.50;99.90;;;;;;5082174;28;20422;-75
2022/12/15 07:46:33;;;;;;;11.43;5.45;;;-0.50;99.90;;;;;;5065259;28;20456;-75
2022/12/15 07:48:59;;;;;;;11.40;5.30;;;-0.40;99.90;;;;;;5085314;28;20506;-75
2022/12/15 07:51:24;;;;;;;11.77;5.20;;;-0.40;99.90;;;;;;5077332;28;20406;-74
2022/12/15 07:53:50;;;;;;;12.60;5.63;;;-0.40;99.90;;;;;;5081013;28;20430;-73
2022/12/15 07:56:17;;;;;;;10.63;5.00;;;-0.40;99.90;;;;;;5083496;28;20436;-74
2022/12/15 07:58:43;;;;;;;12.65;5.40;;;-0.40;99.90;;;;;;5082803;28;20416;-74
2022/12/15 08:01:12;;;;;;;10.73;5.20;;;-0.30;99.90;;;;;;5091764;28;20416;-74
2022/12/15 08:03:38;;;;;;;12.23;5.13;;;-0.30;99.90;;;;;;5087830;28;20930;-74
2022/12/15 08:06:05;;;;;;;9.80;5.63;;;-0.20;99.90;;;;;;5078114;28;20462;-74
2022/12/15 08:08:31;;;;;;;9.20;4.90;;;-0.20;99.90;;;;;;5073608;28;20606;-74
2022/12/15 08:10:57;;;;;;;9.70;5.15;;;-0.20;99.90;;;;;;5082526;28;20830;-74
2022/12/15 08:13:23;;;;;;;9.13;4.57;;;-0.10;99.90;;;;;;5077878;28;20478;-74
2022/12/15 08:15:53;;;;;;;12.73;5.18;;;-0.10;99.90;;;;;;5082987;28;20429;-74
2022/12/15 08:18:19;;;;;;;10.95;5.25;;;-0.10;99.90;;;;;;5087464;28;20446;-74
2022/12/15 08:20:44;;;;;;;10.43;5.00;;;-0.10;99.90;;;;;;5083376;28;20477;-74
2022/12/15 08:23:10;;;;;;;13.40;5.70;;;-0.10;99.90;;;;;;5080914;28;20425;-74
2022/12/15 08:25:36;;;;;;;10.00;5.43;;;-0.20;99.90;;;;;;5060893;28;20500;-74
2022/12/15 08:28:01;;;;;;;9.80;5.30;;;-0.20;99.90;;;;;;5086084;28;20436;-74
2022/12/15 08:30:27;;;;;;;12.93;6.40;;;-0.30;99.90;;;;;;5078032;28;20427;-74
2022/12/15 08:32:53;;;;;;;12.93;5.90;;;-0.30;99.90;;;;;;5065893;28;20420;-74
2022/12/15 08:35:18;;;;;;;9.35;5.38;;;-0.30;99.90;;;;;;5083538;28;20420;-74
2022/12/15 08:37:44;;;;;;;11.30;5.80;;;-0.40;99.90;;;;;;5084027;28;20413;-74
2022/12/15 08:40:10;;;;;;;11.50;5.73;;;-0.40;99.90;;;;;;5078823;28;20474;-74
2022/12/15 08:42:36;;;;;;;9.97;6.07;;;-0.40;99.90;;;;;;5084546;28;20489;-74
2022/12/15 08:45:04;;;;;;;10.52;5.97;;;-0.50;99.90;;;;;;5085994;28;20430;-74
2022/12/15 08:47:29;;;;;;;12.27;5.88;;;-0.50;99.90;;;;;;5066953;28;20410;-74
2022/12/15 08:49:55;;;;;;;12.87;6.33;;;-0.40;99.90;;;;;;5088791;28;20436;-74
2022/12/15 08:52:21;;;;;;;13.30;6.40;;;-0.40;99.90;;;;;;5083313;28;20824;-74
2022/12/15 08:54:48;;;;;;;13.30;5.95;;;-0.40;99.90;;;;;;5079741;28;20428;-74
2022/12/15 08:57:13;;;;;;;12.25;6.03;;;-0.40;99.90;;;;;;5080507;28;20618;-74
2022/12/15 08:59:39;;;;;;;12.80;6.30;;;-0.40;99.90;;;;;;5082873;28;20510;-74
2022/12/15 09:02:05;;;;;;;11.57;6.30;;;-0.50;99.90;;;;;;5079078;28;20423;-74
2022/12/15 09:04:31;;;;;;;11.00;5.93;;;-0.40;99.90;;;;;;5085355;28;20520;-74
2022/12/15 09:06:57;;;;;;;13.18;6.30;;;-0.40;99.90;;;;;;5089384;28;20455;-74
2022/12/15 09:09:23;;;;;;;11.63;6.40;;;-0.40;99.90;;;;;;5080217;28;20941;-73
2022/12/15 09:11:49;;;;;;;11.48;5.85;;;-0.30;99.90;;;;;;5071960;28;20428;-73
2022/12/15 09:14:15;;;;;;;14.90;6.68;;;-0.30;99.90;;;;;;5077945;28;20431;-74
2022/12/15 09:16:41;;;;;;;13.93;6.17;;;-0.30;99.90;;;;;;5083527;28;20460;-74
2022/12/15 09:19:08;;;;;;;11.03;6.40;;;-0.30;99.90;;;;;;5097199;28;20404;-73
2022/12/15 09:21:34;;;;;;;12.82;6.60;;;-0.20;99.90;;;;;;5086010;28;20558;-74
2022/12/15 09:24:01;;;;;;;15.25;7.10;;;-0.20;99.90;;;;;;5086602;28;20450;-73
2022/12/15 09:26:29;;;;;;;12.75;6.20;;;-0.20;99.90;;;;;;5076998;28;20418;-74
2022/12/15 09:28:55;;;;;;;12.38;6.53;;;-0.20;99.90;;;;;;5080604;28;20451;-74
2022/12/15 09:31:23;;;;;;;13.45;6.32;;;-0.10;99.90;;;;;;5086095;28;20414;-74
2022/12/15 09:33:51;;;;;;;12.45;6.32;;;-0.10;99.90;;;;;;5077975;28;20942;-74
2022/12/15 09:36:17;;;;;;;10.82;6.07;;;-0.10;99.90;;;;;;5069704;28;20767;-74
2022/12/15 09:38:43;;;;;;;11.13;6.03;;;-0.10;99.90;;;;;;5077397;28;20456;-74
2022/12/15 09:41:12;;;;;;;12.87;6.50;;;0.00;99.90;;;;;;5082786;28;20437;-73
2022/12/15 09:43:42;;;;;;;12.43;6.25;;;0.10;99.90;;;;;;5090044;28;20478;-74
2022/12/15 09:46:24;;;;;;;10.85;6.38;;;0.10;99.90;;;;;;5083062;28;20414;-74
2022/12/15 09:48:52;;;;;;;13.40;6.30;;;0.20;99.90;;;;;;5082428;28;20419;-74
2022/12/15 09:51:22;;;;;;;11.75;6.47;;;0.20;99.90;;;;;;5075226;28;20506;-74
2022/12/15 09:53:48;;;;;;;12.23;6.18;;;0.20;99.90;;;;;;5079515;28;20438;-74
2022/12/15 09:56:22;;;;;;;11.93;6.30;;;0.30;99.90;;;;;;5078158;28;20418;-74
2022/12/15 09:58:50;;;;;;;12.23;5.97;;;0.30;99.90;;;;;;5074673;28;20530;-74
2022/12/15 10:01:40;;;;;;;13.48;6.38;;;0.40;99.90;;;;;;5076674;28;20939;-74
2022/12/15 10:04:26;;;;;;;12.98;6.07;;;0.40;99.90;;;;;;5074030;28;20929;-74
2022/12/15 10:07:07;;;;;;;13.20;6.90;;;0.50;99.90;;;;;;5082770;28;20422;-74
2022/12/15 10:09:33;;;;;;;13.57;6.85;;;0.50;99.90;;;;;;5085935;28;20412;-74
2022/12/15 10:12:15;;;;;;;10.82;6.47;;;0.50;99.90;;;;;;5088880;28;20402;-75
2022/12/15 10:15:15;;;;;;;13.23;6.63;;;0.50;99.90;;;;;;5072936;28;20481;-75
2022/12/15 10:17:49;;;;;;;13.45;6.72;;;0.50;99.90;;;;;;5065586;28;20854;-75
2022/12/15 10:20:25;;;;;;;14.63;6.65;;;0.60;99.90;;;;;;5074744;28;20406;-75
2022/12/15 10:22:51;;;;;;;12.18;6.57;;;0.60;99.90;;;;;;5074764;28;20422;-75
2022/12/15 10:25:22;;;;;;;13.23;6.13;;;0.60;99.90;;;;;;5085350;28;20431;-75
2022/12/15 10:28:14;;;;;;;12.52;6.63;;;0.60;99.90;;;;;;5079782;28;20771;-75
2022/12/15 10:31:01;;;;;;;13.60;7.07;;;0.70;99.90;;;;;;5083986;28;20413;-74
2022/12/15 10:33:33;;;;;;;10.80;6.50;;;0.80;99.90;;;;;;5089065;28;20427;-75
2022/12/15 10:35:59;;;;;;;10.85;6.30;;;0.80;99.90;;;;;;5083412;28;20430;-75
2022/12/15 10:38:30;;;;;;;13.43;6.97;;;0.90;99.90;;;;;;5086669;28;20422;-74
2022/12/15 10:41:00;;;;;;;12.07;6.40;;;0.90;99.90;;;;;;5084216;28;20830;-75
2022/12/15 10:43:35;;;;;;;14.48;7.55;;;0.90;99.90;;;;;;5079926;28;20428;-74
2022/12/15 10:46:24;;;;;;;12.68;6.68;;;1.20;99.90;;;;;;5086169;28;20423;-75
2022/12/15 10:48:58;;;;;;;12.45;6.68;;;1.50;99.90;;;;;;5082063;28;20970;-75
2022/12/15 10:51:43;;;;;;;12.57;6.77;;;1.60;99.90;;;;;;5078955;28;20444;-75
2022/12/15 10:54:09;;;;;;;11.32;6.43;;;1.70;99.90;;;;;;5077106;28;20791;-75
2022/12/15 10:56:45;;;;;;;11.23;6.33;;;1.70;99.90;;;;;;5085961;28;20426;-75
2022/12/15 10:59:31;;;;;;;11.30;6.00;;;1.70;99.90;;;;;;5087440;28;20402;-75
2022/12/15 11:02:19;;;;;;;12.15;6.28;;;1.90;99.90;;;;;;5084169;28;20425;-75
2022/12/15 11:05:03;;;;;;;11.55;6.32;;;2.10;99.90;;;;;;5083002;28;20414;-75
2022/12/15 11:07:35;;;;;;;11.00;6.30;;;2.30;99.90;;;;;;5084153;28;20430;-75
2022/12/15 11:10:24;;;;;;;9.88;6.30;;;2.60;99.90;;;;;;5078946;28;20415;-75
2022/12/15 11:13:19;;;;;;;10.55;6.40;;;3.00;99.90;;;;;;5073931;28;20463;-75
2022/12/15 11:15:49;;;;;;;12.43;6.18;;;3.30;99.90;;;;;;5074649;28;20415;-75
2022/12/15 11:18:37;;;;;;;9.75;6.00;;;3.50;99.90;;;;;;5078255;28;20473;-75
2022/12/15 11:21:11;;;;;;;10.00;5.93;;;3.70;99.90;;;;;;5087530;28;20842;-75
2022/12/15 11:24:07;;;;;;;11.25;5.72;;;3.70;99.90;;;;;;5076805;28;20431;-75
2022/12/15 11:26:45;;;;;;;14.85;8.30;;;4.00;99.90;;;;;;5073935;28;20426;-74
2022/12/15 11:29:26;;;;;;;11.88;6.38;;;4.10;99.90;;;;;;5084888;28;20429;-75
2022/12/15 11:31:53;;;;;;;14.05;7.00;;;3.90;99.90;;;;;;5074702;28;20488;-75
2022/12/15 11:34:25;;;;;;;9.70;5.70;;;3.60;99.90;;;;;;5080011;28;20461;-75
2022/12/15 11:37:17;;;;;;;12.02;6.10;;;3.30;99.90;;;;;;5083857;28;20412;-75
2022/12/15 11:40:02;;;;;;;10.90;6.17;;;3.10;99.90;;;;;;5084825;28;20924;-75
2022/12/15 11:42:36;;;;;;;12.30;6.10;;;3.00;99.90;;;;;;5083476;28;20518;-75
2022/12/15 11:45:13;;;;;;;11.48;5.85;;;2.80;99.90;;;;;;5078954;28;20542;-75
2022/12/15 11:47:49;;;;;;;12.23;5.65;;;2.70;99.90;;;;;;5080004;28;21366;-75
2022/12/15 11:50:46;;;;;;;13.07;5.75;;;2.60;99.90;;;;;;5091819;28;20479;-75
2022/12/15 11:53:42;;;;;;;9.57;5.63;;;2.60;99.90;;;;;;5083453;28;20439;-75
2022/12/15 11:56:30;;;;;;;11.82;5.97;;;2.60;99.90;;;;;;5069335;28;20415;-75
2022/12/15 11:59:08;;;;;;;10.07;5.82;;;2.60;99.90;;;;;;5084946;28;20981;-75
2022/12/15 12:02:00;;;;;;;12.38;5.65;;;2.60;99.90;;;;;;5083852;28;20433;-75
2022/12/15 12:04:28;;;;;;;10.90;6.30;;;2.60;99.90;;;;;;5087020;28;20424;-75
2022/12/15 12:07:22;;;;;;;10.77;5.82;;;2.70;99.90;;;;;;5089502;28;20406;-75
2022/12/15 12:10:09;;;;;;;10.57;5.32;;;2.90;99.90;;;;;;5081194;28;20980;-75
2022/12/15 12:12:51;;;;;;;11.38;6.18;;;3.20;99.90;;;;;;5075047;28;20415;-75
2022/12/15 12:15:34;;;;;;;14.23;6.25;;;3.50;99.90;;;;;;5086483;28;20410;-75
2022/12/15 12:18:12;;;;;;;14.90;5.35;;;3.50;99.90;;;;;;5084581;28;20435;-75
2022/12/15 12:20:51;;;;;;;12.63;5.65;;;3.60;99.90;;;;;;5086251;28;20416;-75
2022/12/15 12:23:47;;;;;;;8.57;4.35;;;3.70;99.90;;;;;;5075171;28;20429;-75
2022/12/15 12:26:15;;;;;;;10.50;5.00;;;4.00;99.90;;;;;;5084326;28;20417;-75
2022/12/15 12:28:50;;;;;;;11.68;5.20;;;4.00;99.90;;;;;;5085217;28;20465;-75
2022/12/15 12:31:39;;;;;;;11.43;4.97;;;3.90;99.90;;;;;;5090757;28;20398;-75
2022/12/15 12:34:28;;;;;;;10.80;5.03;;;3.80;99.90;;;;;;5079357;28;20428;-75
2022/12/15 12:37:03;;;;;;;12.38;4.95;;;3.80;99.90;;;;;;5089732;28;20451;-75
2022/12/15 12:39:31;;;;;;;10.35;4.85;;;3.70;99.90;;;;;;5086391;28;20788;-75
2022/12/15 12:42:13;;;;;;;9.95;5.20;;;3.50;99.90;;;;;;5099269;28;20428;-75
2022/12/15 12:44:39;;;;;;;9.05;5.05;;;3.50;99.90;;;;;;5088892;28;20496;-75
2022/12/15 12:47:22;;;;;;;8.90;5.17;;;3.70;99.90;;;;;;5088443;28;20512;-75
2022/12/15 12:49:59;;;;;;;9.30;5.05;;;3.70;99.90;;;;;;5081244;28;20583;-75
2022/12/15 12:52:29;;;;;;;11.07;5.38;;;3.70;99.90;;;;;;5077167;28;20942;-75
2022/12/15 12:54:58;;;;;;;10.80;5.28;;;3.60;99.90;;;;;;5082950;28;20431;-75
2022/12/15 12:57:34;;;;;;;9.55;4.45;;;3.60;99.90;;;;;;5076576;28;20549;-75
2022/12/15 13:00:07;;;;;;;12.10;5.40;;;3.60;99.90;;;;;;5085508;28;20520;-75
2022/12/15 13:02:36;;;;;;;9.98;4.90;;;3.80;99.90;;;;;;5080264;28;20430;-75
2022/12/15 13:05:21;;;;;;;9.73;5.05;;;3.80;99.90;;;;;;5082782;28;20408;-75
2022/12/15 13:08:04;;;;;;;8.40;4.67;;;3.70;99.90;;;;;;5086316;28;20832;-75
2022/12/15 13:10:48;;;;;;;10.65;5.20;;;3.60;99.90;;;;;;5071529;28;20431;-75
2022/12/15 13:13:32;;;;;;;10.63;5.10;;;3.40;99.90;;;;;;5073556;28;20422;-76
2022/12/15 13:16:01;;;;;;;11.00;5.27;;;3.30;99.90;;;;;;5085145;28;20490;-75
2022/12/15 13:18:27;;;;;;;12.70;5.40;;;3.20;99.90;;;;;;5084758;28;20414;-75
2022/12/15 13:20:54;;;;;;;9.77;4.63;;;3.10;99.90;;;;;;5059367;28;20493;-75
2022/12/15 13:23:20;;;;;;;11.15;5.07;;;3.10;99.90;;;;;;5077039;28;20473;-75
2022/12/15 13:25:52;;;;;;;8.43;4.50;;;3.20;99.90;;;;;;5076427;28;21341;-75
2022/12/15 13:28:38;;;;;;;9.68;4.45;;;3.40;99.90;;;;;;5088092;28;20424;-75
2022/12/15 13:31:26;;;;;;;11.27;4.93;;;3.50;99.90;;;;;;5088512;28;20405;-75
2022/12/15 13:33:59;;;;;;;9.20;4.68;;;3.60;99.90;;;;;;5085377;28;20422;-75
2022/12/15 13:36:40;;;;;;;11.02;4.63;;;3.50;99.90;;;;;;5083426;28;20435;-75
2022/12/15 13:39:15;;;;;;;12.85;5.10;;;3.50;99.90;;;;;;5084757;28;20432;-75
2022/12/15 13:41:50;;;;;;;9.98;4.70;;;3.40;99.90;;;;;;5062686;28;20495;-75
2022/12/15 13:44:34;;;;;;;9.60;4.32;;;3.40;99.90;;;;;;5072525;28;20455;-75
2022/12/15 13:47:17;;;;;;;12.93;4.10;;;3.40;99.90;;;;;;5078677;28;20408;-75
2022/12/15 13:50:01;;;;;;;10.63;4.05;;;3.60;99.90;;;;;;5081831;28;20414;-75
2022/12/15 13:52:37;;;;;;;9.63;4.30;;;3.50;99.90;;;;;;5069960;28;20410;-75
2022/12/15 13:55:16;;;;;;;9.40;4.20;;;3.50;99.90;;;;;;5078959;28;20441;-75
2022/12/15 13:57:57;;;;;;;10.60;4.70;;;3.40;99.90;;;;;;5085097;28;20430;-75
2022/12/15 14:00:23;;;;;;;10.35;4.30;;;3.40;99.90;;;;;;5079680;28;20423;-76
2022/12/15 14:02:49;;;;;;;9.18;4.40;;;3.30;99.90;;;;;;5073595;28;20453;-75
2022/12/15 14:05:21;;;;;;;8.87;4.57;;;3.20;99.90;;;;;;5071841;28;20390;-75
2022/12/15 14:07:49;;;;;;;10.50;4.70;;;3.10;99.90;;;;;;5072442;28;20532;-75
2022/12/15 14:10:24;;;;;;;11.63;4.57;;;3.00;99.90;;;;;;5074662;28;20411;-76
2022/12/15 14:12:51;;;;;;;9.73;4.40;;;2.90;99.90;;;;;;5070288;28;20497;-76
2022/12/15 14:15:27;;;;;;;13.57;4.70;;;2.90;99.90;;;;;;5075324;28;20436;-76
2022/12/15 14:17:54;;;;;;;10.35;4.57;;;2.80;99.90;;;;;;5071038;28;20408;-76
2022/12/15 14:20:24;;;;;;;12.35;4.80;;;2.70;99.90;;;;;;5061800;28;20929;-74
2022/12/15 14:22:51;;;;;;;8.80;4.87;;;2.70;99.90;;;;;;5082269;28;20427;-74
2022/12/15 14:25:28;;;;;;;11.27;4.80;;;2.70;99.90;;;;;;5084902;28;20527;-74
2022/12/15 14:27:56;;;;;;;10.88;4.55;;;2.70;99.90;;;;;;5071582;28;20520;-73
2022/12/15 14:30:22;;;;;;;10.27;4.75;;;2.60;99.90;;;;;;5074902;28;20522;-73
2022/12/15 14:33:05;;;;;;;13.40;5.33;;;2.60;99.90;;;;;;5074963;28;20498;-75
2022/12/15 14:35:34;;;;;;;11.27;5.10;;;2.60;99.90;;;;;;5072451;28;20895;-75
2022/12/15 14:38:04;;;;;;;10.63;5.17;;;2.60;99.90;;;;;;5082072;28;20445;-75
2022/12/15 14:40:32;;;;;;;11.88;5.32;;;2.60;99.90;;;;;;5071663;28;21266;-75
2022/12/15 14:42:58;;;;;;;11.10;5.43;;;2.60;99.90;;;;;;5081461;28;20410;-75
2022/12/15 14:45:26;;;;;;;11.57;5.60;;;2.60;99.90;;;;;;5082702;28;20402;-75
2022/12/15 14:47:56;;;;;;;13.40;5.45;;;2.60;99.90;;;;;;5067497;28;20400;-75
2022/12/15 14:50:24;;;;;;;8.57;5.03;;;2.60;99.90;;;;;;5081121;28;20473;-75
2022/12/15 14:53:10;;;;;;;11.13;5.43;;;2.50;99.90;;;;;;5074427;28;20412;-75
2022/12/15 14:55:37;;;;;;;13.53;5.97;;;2.50;99.90;;;;;;5077780;28;20415;-75
2022/12/15 14:58:28;;;;;;;13.77;6.40;;;2.50;99.90;;;;;;5067054;28;20431;-75
2022/12/15 15:00:54;;;;;;;14.18;8.25;;;2.50;99.90;;;;;;5081935;28;21240;-75
2022/12/15 15:03:24;;;;;;;13.00;5.47;;;2.40;99.90;;;;;;5079263;28;20404;-75
2022/12/15 15:05:58;;;;;;;12.32;5.43;;;2.40;99.90;;;;;;5088098;28;20402;-75
2022/12/15 15:08:46;;;;;;;11.82;5.43;;;2.40;99.90;;;;;;5087216;28;20441;-75
2022/12/15 15:11:33;;;;;;;13.43;6.25;;;2.40;99.90;;;;;;5085759;28;20390;-75
2022/12/15 15:14:04;;;;;;;15.80;6.95;;;2.40;99.90;;;;;;5075891;28;21127;-76
2022/12/15 15:16:30;;;;;;;11.15;5.68;;;2.40;99.90;;;;;;5084801;28;20441;-75
2022/12/15 15:18:59;;;;;;;14.82;5.60;;;2.40;99.90;;;;;;5084149;28;20928;-75
2022/12/15 15:21:32;;;;;;;13.35;7.60;;;2.40;99.90;;;;;;5084670;28;20405;-74